Time;durP1;ratioP1;P1;durP2;ratioP2;P2;SDS_P1;SDS_P2;PMS_P1;PMS_P2;Temp;Humidity;BMP_temperature;BMP_pressure;BME280_temperature;BME280_humidity;BME280_pressure;Samples;Min_cycle;Max_cycle;Signal;HPM_P1;HPM_P2
2022/11/24 00:01:10;;;;;;;4.70;3.43;;;;;;;;;;5055762;28;20458;-66
2022/11/24 00:03:38;;;;;;;12.37;3.70;;;;;;;;;;5057790;28;21019;-66
2022/11/24 00:06:07;;;;;;;10.63;4.97;;;;;;;;;;5056592;28;20453;-66
2022/11/24 00:08:35;;;;;;;11.33;3.47;;;;;;;;;;5056547;28;20742;-66
2022/11/24 00:11:06;;;;;;;11.00;4.37;;;;;;;;;;5055575;28;20476;-67
2022/11/24 00:13:37;;;;;;;8.73;3.60;;;;;;;;;;5065381;28;20488;-67
2022/11/24 00:16:11;;;;;;;6.70;3.77;;;;;;;;;;5075710;28;20460;-68
2022/11/24 00:18:38;;;;;;;10.53;4.07;;;;;;;;;;5079147;28;20715;-66
2022/11/24 00:21:06;;;;;;;5.17;3.60;;;;;;;;;;5076272;28;20461;-68
2022/11/24 00:23:34;;;;;;;6.20;3.87;;;;;;;;;;5075866;28;20456;-67
2022/11/24 00:26:20;;;;;;;6.10;3.73;;;;;;;;;;5076968;28;20449;-68
2022/11/24 00:28:49;;;;;;;6.90;4.83;;;;;;;;;;5076274;28;20539;-68
2022/11/24 00:31:19;;;;;;;5.50;3.00;;;;;;;;;;5076798;28;20712;-68
2022/11/24 00:33:47;;;;;;;7.93;4.10;;;;;;;;;;5076236;28;20471;-68
2022/11/24 00:36:15;;;;;;;9.77;4.80;;;;;;;;;;5076893;28;20448;-68
2022/11/24 00:38:42;;;;;;;9.00;4.50;;;;;;;;;;5076807;28;20460;-67
2022/11/24 00:41:10;;;;;;;11.90;6.17;;;;;;;;;;5075150;28;20455;-66
2022/11/24 00:43:38;;;;;;;6.83;4.43;;;;;;;;;;5076294;28;20856;-67
2022/11/24 00:46:06;;;;;;;11.43;5.30;;;;;;;;;;5079147;28;20444;-67
2022/11/24 00:48:35;;;;;;;8.70;5.33;;;;;;;;;;5081167;28;20488;-67
2022/11/24 00:51:04;;;;;;;6.83;4.60;;;;;;;;;;5080623;28;20455;-67
2022/11/24 00:53:31;;;;;;;12.30;5.07;;;;;;;;;;5079478;28;20467;-68
2022/11/24 00:55:59;;;;;;;10.30;4.83;;;;;;;;;;5079905;28;20448;-67
2022/11/24 00:58:27;;;;;;;8.30;4.90;;;;;;;;;;5080981;28;20490;-67
2022/11/24 01:00:55;;;;;;;11.07;4.80;;;;;;;;;;5079147;28;20456;-67
2022/11/24 01:03:22;;;;;;;6.77;4.47;;;;;;;;;;5079158;28;20504;-67
2022/11/24 01:05:52;;;;;;;11.90;4.97;;;;;;;;;;5079744;28;20733;-67
2022/11/24 01:08:20;;;;;;;11.73;4.70;;;;;;;;;;5074964;28;20481;-67
2022/11/24 01:10:48;;;;;;;8.30;3.70;;;;;;;;;;5060413;28;20457;-70
2022/11/24 01:13:16;;;;;;;8.60;3.83;;;;;;;;;;5061201;28;20533;-68
2022/11/24 01:15:43;;;;;;;10.83;4.03;;;;;;;;;;5060226;28;20461;-68
2022/11/24 01:18:12;;;;;;;6.40;4.30;;;;;;;;;;5059880;28;20487;-68
2022/11/24 01:20:45;;;;;;;7.17;3.83;;;;;;;;;;5060684;28;20454;-68
2022/11/24 01:23:15;;;;;;;8.77;4.80;;;;;;;;;;5059911;28;20462;-68
2022/11/24 01:25:42;;;;;;;6.00;4.57;;;;;;;;;;5058723;28;20460;-68
2022/11/24 01:28:10;;;;;;;6.87;3.93;;;;;;;;;;5059911;28;20484;-68
2022/11/24 01:30:39;;;;;;;7.67;4.17;;;;;;;;;;5059400;28;20463;-68
2022/11/24 01:33:06;;;;;;;8.87;4.03;;;;;;;;;;5059102;28;20464;-68
2022/11/24 01:35:34;;;;;;;7.20;4.37;;;;;;;;;;5058539;28;20456;-68
2022/11/24 01:38:01;;;;;;;7.93;4.37;;;;;;;;;;5059491;28;20477;-68
2022/11/24 01:40:30;;;;;;;9.00;4.00;;;;;;;;;;5058991;28;20456;-68
2022/11/24 01:42:58;;;;;;;5.43;3.50;;;;;;;;;;5058410;28;20445;-68
2022/11/24 01:45:31;;;;;;;6.67;4.50;;;;;;;;;;5058507;28;20445;-68
2022/11/24 01:48:02;;;;;;;5.93;3.80;;;;;;;;;;5058850;28;20485;-68
2022/11/24 01:50:30;;;;;;;6.03;3.40;;;;;;;;;;5059321;28;20833;-68
2022/11/24 01:52:58;;;;;;;6.93;4.00;;;;;;;;;;5058329;28;20744;-68
2022/11/24 01:55:28;;;;;;;7.70;4.00;;;;;;;;;;5058079;28;20450;-68
2022/11/24 01:57:59;;;;;;;7.63;3.73;;;;;;;;;;5059030;28;20454;-68
2022/11/24 02:00:26;;;;;;;9.93;4.00;;;;;;;;;;5057979;28;20480;-68
2022/11/24 02:02:54;;;;;;;6.50;3.47;;;;;;;;;;5058419;28;20895;-68
2022/11/24 02:05:24;;;;;;;7.90;4.20;;;;;;;;;;5058418;28;20450;-68
2022/11/24 02:07:52;;;;;;;5.40;3.53;;;;;;;;;;5076419;28;20491;-68
2022/11/24 02:10:20;;;;;;;9.13;4.33;;;;;;;;;;5079069;28;20833;-68
2022/11/24 02:12:49;;;;;;;5.73;3.30;;;;;;;;;;5077223;28;20907;-68
2022/11/24 02:15:19;;;;;;;7.30;3.60;;;;;;;;;;5077375;28;20462;-68
2022/11/24 02:17:47;;;;;;;11.73;3.90;;;;;;;;;;5077790;28;20461;-69
2022/11/24 02:20:15;;;;;;;5.93;3.70;;;;;;;;;;5077675;28;20551;-69
2022/11/24 02:22:48;;;;;;;7.50;4.70;;;;;;;;;;5077128;28;20779;-69
2022/11/24 02:25:24;;;;;;;8.60;4.37;;;;;;;;;;5077280;28;20456;-69
2022/11/24 02:27:53;;;;;;;5.30;3.73;;;;;;;;;;5076987;28;20535;-69
2022/11/24 02:30:21;;;;;;;8.33;3.37;;;;;;;;;;5076737;28;20726;-69
2022/11/24 02:32:48;;;;;;;8.70;4.37;;;;;;;;;;5076910;28;20466;-69
2022/11/24 02:35:16;;;;;;;7.00;3.70;;;;;;;;;;5077843;28;20535;-68
2022/11/24 02:37:43;;;;;;;9.37;4.17;;;;;;;;;;5077035;28;20463;-69
2022/11/24 02:40:11;;;;;;;8.80;4.20;;;;;;;;;;5078508;28;20531;-68
2022/11/24 02:42:42;;;;;;;9.97;4.07;;;;;;;;;;5070896;28;20440;-68
2022/11/24 02:45:12;;;;;;;10.70;3.73;;;;;;;;;;5079073;28;20449;-69
2022/11/24 02:47:40;;;;;;;5.57;4.23;;;;;;;;;;5077078;28;20772;-69
2022/11/24 02:50:08;;;;;;;8.10;3.93;;;;;;;;;;5077696;28;20456;-69
2022/11/24 02:52:35;;;;;;;9.07;3.70;;;;;;;;;;5058786;28;20454;-68
2022/11/24 02:55:03;;;;;;;6.37;4.23;;;;;;;;;;5057725;28;20461;-68
2022/11/24 02:57:31;;;;;;;7.97;3.90;;;;;;;;;;5058059;28;20931;-69
2022/11/24 02:59:58;;;;;;;14.17;4.33;;;;;;;;;;5056543;28;20519;-69
2022/11/24 03:02:27;;;;;;;5.93;3.83;;;;;;;;;;5074269;28;20741;-69
2022/11/24 03:04:56;;;;;;;5.97;3.80;;;;;;;;;;5075898;28;20683;-68
2022/11/24 03:07:25;;;;;;;5.83;3.57;;;;;;;;;;5072794;28;20592;-69
2022/11/24 03:09:53;;;;;;;8.40;3.93;;;;;;;;;;5057887;28;20713;-69
2022/11/24 03:12:21;;;;;;;6.97;3.40;;;;;;;;;;5057839;28;20683;-69
2022/11/24 03:14:48;;;;;;;6.40;4.00;;;;;;;;;;5056693;28;20719;-68
2022/11/24 03:17:16;;;;;;;7.83;4.57;;;;;;;;;;5057055;28;20858;-69
2022/11/24 03:19:45;;;;;;;9.27;5.37;;;;;;;;;;5057273;28;20900;-69
2022/11/24 03:22:13;;;;;;;8.93;3.90;;;;;;;;;;5056675;28;20449;-69
2022/11/24 03:24:58;;;;;;;8.97;4.20;;;;;;;;;;5057671;28;20729;-69
2022/11/24 03:27:26;;;;;;;6.40;3.97;;;;;;;;;;5057799;28;20538;-69
2022/11/24 03:29:54;;;;;;;7.03;4.43;;;;;;;;;;5056263;28;20683;-69
2022/11/24 03:32:22;;;;;;;6.07;4.40;;;;;;;;;;5057887;28;20458;-68
2022/11/24 03:34:51;;;;;;;7.90;3.97;;;;;;;;;;5072563;28;20461;-69
2022/11/24 03:37:25;;;;;;;21.43;4.20;;;;;;;;;;5076790;28;20460;-69
2022/11/24 03:39:52;;;;;;;7.27;3.90;;;;;;;;;;5076900;28;20449;-69
2022/11/24 03:42:20;;;;;;;8.53;3.47;;;;;;;;;;5076092;28;20453;-69
2022/11/24 03:44:47;;;;;;;7.73;3.80;;;;;;;;;;5076838;28;20452;-69
2022/11/24 03:47:15;;;;;;;10.30;3.90;;;;;;;;;;5075837;28;20533;-69
2022/11/24 03:49:43;;;;;;;7.37;4.10;;;;;;;;;;5076753;28;20460;-69
2022/11/24 03:52:12;;;;;;;5.00;3.70;;;;;;;;;;5077122;28;20460;-69
2022/11/24 03:54:41;;;;;;;7.50;4.40;;;;;;;;;;5076030;28;20471;-68
2022/11/24 03:57:09;;;;;;;6.30;3.53;;;;;;;;;;5058337;28;20453;-69
2022/11/24 03:59:36;;;;;;;9.50;4.60;;;;;;;;;;5069000;28;20546;-69
2022/11/24 04:02:04;;;;;;;7.83;4.93;;;;;;;;;;5055510;28;20737;-69
2022/11/24 04:04:32;;;;;;;7.60;4.17;;;;;;;;;;5067647;28;20463;-69
2022/11/24 04:07:00;;;;;;;6.53;4.03;;;;;;;;;;5076690;28;20948;-69
2022/11/24 04:09:29;;;;;;;7.30;3.63;;;;;;;;;;5076215;28;20511;-69
2022/11/24 04:14:58;;;;;;;12.27;6.30;;;;;;;;;;5013613;28;20431;-69
2022/11/24 04:17:30;;;;;;;9.90;4.03;;;;;;;;;;5013978;28;20484;-69
2022/11/24 04:19:57;;;;;;;7.23;4.73;;;;;;;;;;5045631;28;20459;-69
2022/11/24 04:22:28;;;;;;;8.00;3.93;;;;;;;;;;5076335;28;20459;-69
2022/11/24 04:24:57;;;;;;;7.10;4.17;;;;;;;;;;5076632;28;20554;-69
2022/11/24 04:27:25;;;;;;;8.53;4.37;;;;;;;;;;5075200;28;20456;-69
2022/11/24 04:29:52;;;;;;;8.40;4.43;;;;;;;;;;5077842;28;20468;-69
2022/11/24 04:32:21;;;;;;;6.80;4.10;;;;;;;;;;5072775;28;20880;-69
2022/11/24 04:34:48;;;;;;;8.77;5.33;;;;;;;;;;5067899;28;20485;-69
2022/11/24 04:37:16;;;;;;;13.13;4.70;;;;;;;;;;5055654;28;20449;-69
2022/11/24 04:39:45;;;;;;;10.80;4.20;;;;;;;;;;5062424;28;20448;-69
2022/11/24 04:42:14;;;;;;;7.90;4.73;;;;;;;;;;5075115;28;20559;-69
2022/11/24 04:44:41;;;;;;;5.57;3.67;;;;;;;;;;5075626;28;20464;-69
2022/11/24 04:47:13;;;;;;;6.97;3.10;;;;;;;;;;5076372;28;20464;-69
2022/11/24 04:49:40;;;;;;;9.03;4.47;;;;;;;;;;5075082;28;20492;-69
2022/11/24 04:52:09;;;;;;;6.60;4.20;;;;;;;;;;5068921;28;20445;-69
2022/11/24 04:54:38;;;;;;;7.80;4.00;;;;;;;;;;5056110;28;20543;-69
2022/11/24 04:57:05;;;;;;;5.97;3.93;;;;;;;;;;5060903;28;20534;-69
2022/11/24 04:59:40;;;;;;;11.80;4.63;;;;;;;;;;5077458;28;20517;-69
2022/11/24 05:02:07;;;;;;;7.80;4.60;;;;;;;;;;5066671;28;20511;-68
2022/11/24 05:04:41;;;;;;;7.93;3.90;;;;;;;;;;5055516;28;20463;-69
2022/11/24 05:07:11;;;;;;;7.33;3.87;;;;;;;;;;5055555;28;20523;-68
2022/11/24 05:10:33;;;;;;;8.70;4.20;;;;;;;;;;5051081;28;21151;-68
2022/11/24 05:12:30;;;;;;;7.80;4.30;;;;;;;;;;5035868;28;20555;-68
2022/11/24 05:15:05;;;;;;;6.40;3.90;;;;;;;;;;5064693;28;20527;-68
2022/11/24 05:17:35;;;;;;;9.20;5.17;;;;;;;;;;5075123;28;20521;-68
2022/11/24 05:20:02;;;;;;;7.33;4.30;;;;;;;;;;5075262;28;20490;-69
2022/11/24 05:22:30;;;;;;;7.67;3.97;;;;;;;;;;5074905;28;20518;-68
2022/11/24 05:24:58;;;;;;;8.00;4.63;;;;;;;;;;5076036;28;20513;-68
2022/11/24 05:27:25;;;;;;;8.17;3.83;;;;;;;;;;5057654;28;20453;-68
2022/11/24 05:29:53;;;;;;;7.03;4.63;;;;;;;;;;5055422;28;20481;-68
2022/11/24 05:32:22;;;;;;;7.63;3.83;;;;;;;;;;5056904;28;20453;-68
2022/11/24 05:34:51;;;;;;;6.30;3.57;;;;;;;;;;5058677;28;20464;-69
2022/11/24 05:37:19;;;;;;;6.73;4.27;;;;;;;;;;5057736;28;21098;-68
2022/11/24 05:39:47;;;;;;;7.40;4.77;;;;;;;;;;5059076;28;20518;-69
2022/11/24 05:44:59;;;;;;;7.40;4.00;;;;;;;;;;5063615;28;20433;-68
2022/11/24 05:47:28;;;;;;;4.73;3.43;;;;;;;;;;5078533;28;20449;-68
2022/11/24 05:49:56;;;;;;;8.60;4.33;;;;;;;;;;5057694;28;20564;-68
2022/11/24 05:52:24;;;;;;;6.27;3.80;;;;;;;;;;5055823;28;20496;-68
2022/11/24 05:54:53;;;;;;;6.93;4.67;;;;;;;;;;5057905;28;20457;-69
2022/11/24 05:57:21;;;;;;;7.60;4.50;;;;;;;;;;5058429;28;20468;-68
2022/11/24 05:59:49;;;;;;;8.23;5.03;;;;;;;;;;5057872;28;20446;-67
2022/11/24 06:02:16;;;;;;;9.17;5.97;;;;;;;;;;5058213;28;20462;-68
2022/11/24 06:04:45;;;;;;;10.27;6.13;;;;;;;;;;5056515;28;20472;-68
2022/11/24 06:07:13;;;;;;;7.80;5.03;;;;;;;;;;5058088;28;20461;-68
2022/11/24 06:09:42;;;;;;;6.27;4.07;;;;;;;;;;5057226;28;20617;-68
2022/11/24 06:12:11;;;;;;;9.87;4.77;;;;;;;;;;5057824;28;20556;-69
2022/11/24 06:14:41;;;;;;;12.00;5.30;;;;;;;;;;5056569;28;20453;-69
2022/11/24 06:17:13;;;;;;;6.93;4.47;;;;;;;;;;5048018;28;20454;-69
2022/11/24 06:19:48;;;;;;;10.10;4.33;;;;;;;;;;5056628;28;20446;-69
2022/11/24 06:22:18;;;;;;;10.27;4.57;;;;;;;;;;5057100;28;20883;-69
2022/11/24 06:24:46;;;;;;;11.77;4.87;;;;;;;;;;5056473;28;20453;-69
2022/11/24 06:27:15;;;;;;;9.20;4.20;;;;;;;;;;5050808;28;20548;-69
2022/11/24 06:29:42;;;;;;;4.93;3.97;;;;;;;;;;5057463;28;20485;-68
2022/11/24 06:32:11;;;;;;;18.90;7.23;;;;;;;;;;5055653;28;20465;-69
2022/11/24 06:34:40;;;;;;;12.87;4.63;;;;;;;;;;5051111;28;20453;-70
2022/11/24 06:37:13;;;;;;;8.40;4.87;;;;;;;;;;5052664;28;21090;-69
2022/11/24 06:39:44;;;;;;;6.17;4.50;;;;;;;;;;5051657;28;21134;-69
2022/11/24 06:42:12;;;;;;;8.20;6.40;;;;;;;;;;5055489;28;20467;-68
2022/11/24 06:44:40;;;;;;;11.83;4.90;;;;;;;;;;5057409;28;20876;-69
2022/11/24 06:47:08;;;;;;;9.53;4.87;;;;;;;;;;5054838;28;20542;-70
2022/11/24 06:49:35;;;;;;;10.83;5.00;;;;;;;;;;5054309;28;20481;-69
2022/11/24 06:52:03;;;;;;;8.93;4.90;;;;;;;;;;5045388;28;20461;-69
2022/11/24 06:54:32;;;;;;;7.80;4.17;;;;;;;;;;5053775;28;20473;-70
2022/11/24 06:57:00;;;;;;;13.40;4.77;;;;;;;;;;5051776;28;20452;-69
2022/11/24 06:59:33;;;;;;;10.20;4.87;;;;;;;;;;5053045;28;20461;-69
2022/11/24 07:02:05;;;;;;;7.47;4.37;;;;;;;;;;5043008;28;20468;-69
2022/11/24 07:04:33;;;;;;;11.80;4.67;;;;;;;;;;5047731;28;21204;-69
2022/11/24 07:07:00;;;;;;;10.77;5.00;;;;;;;;;;5054492;28;21032;-69
2022/11/24 07:09:28;;;;;;;7.10;4.37;;;;;;;;;;5056433;28;20477;-67
2022/11/24 07:11:59;;;;;;;9.30;4.17;;;;;;;;;;5046710;28;20791;-69
2022/11/24 07:14:33;;;;;;;9.80;5.70;;;;;;;;;;5054217;28;20459;-68
2022/11/24 07:17:18;;;;;;;10.33;5.87;;;;;;;;;;5033272;28;21149;-68
2022/11/24 07:19:46;;;;;;;9.83;3.67;;;;;;;;;;5035607;28;20461;-69
2022/11/24 07:22:14;;;;;;;9.40;4.70;;;;;;;;;;5035707;28;20489;-70
2022/11/24 07:28:06;;;;;;;10.93;4.80;;;;;;;;;;5038589;28;20465;-69
2022/11/24 07:30:37;;;;;;;11.43;4.80;;;;;;;;;;5045323;28;20579;-69
2022/11/24 07:33:05;;;;;;;8.73;4.60;;;;;;;;;;5053377;28;20457;-69
2022/11/24 07:35:36;;;;;;;6.27;4.00;;;;;;;;;;5053677;28;20878;-69
2022/11/24 07:38:04;;;;;;;10.80;5.10;;;;;;;;;;5063659;28;20499;-69
2022/11/24 07:40:39;;;;;;;10.70;5.60;;;;;;;;;;5075670;28;20460;-69
2022/11/24 07:43:08;;;;;;;12.83;5.30;;;;;;;;;;5077393;28;20451;-70
2022/11/24 07:45:36;;;;;;;16.60;5.40;;;;;;;;;;5076568;28;20714;-70
2022/11/24 07:48:04;;;;;;;8.40;3.80;;;;;;;;;;5063059;28;20492;-68
2022/11/24 07:50:32;;;;;;;8.77;4.20;;;;;;;;;;5069966;28;20483;-69
2022/11/24 07:53:03;;;;;;;8.87;5.17;;;;;;;;;;5063963;28;20472;-69
2022/11/24 07:55:35;;;;;;;11.90;4.87;;;;;;;;;;5066724;28;20562;-69
2022/11/24 07:58:11;;;;;;;10.30;4.90;;;;;;;;;;5078945;28;20445;-68
2022/11/24 08:00:41;;;;;;;7.83;4.87;;;;;;;;;;5074166;28;20494;-68
2022/11/24 08:03:13;;;;;;;12.30;5.83;;;;;;;;;;5068680;28;20563;-70
2022/11/24 08:05:54;;;;;;;7.60;5.23;;;;;;;;;;5080524;28;20461;-70
2022/11/24 08:08:40;;;;;;;12.00;5.40;;;;;;;;;;5070759;28;20477;-70
2022/11/24 08:11:10;;;;;;;11.83;4.50;;;;;;;;;;5057751;28;20473;-70
2022/11/24 08:13:41;;;;;;;8.30;4.50;;;;;;;;;;5058518;28;20518;-69
2022/11/24 08:16:28;;;;;;;8.23;4.60;;;;;;;;;;5068755;28;20464;-70
2022/11/24 08:19:15;;;;;;;8.53;5.50;;;;;;;;;;5071641;28;20464;-68
2022/11/24 08:21:46;;;;;;;12.80;5.57;;;;;;;;;;5064048;28;20470;-68
2022/11/24 08:24:19;;;;;;;6.97;4.27;;;;;;;;;;5060791;28;20485;-68
2022/11/24 08:32:33;;;;;;;9.00;5.27;;;;;;;;;;5072932;28;20480;-69
2022/11/24 08:35:01;;;;;;;10.83;5.17;;;;;;;;;;5059139;28;20466;-68
2022/11/24 08:37:32;;;;;;;14.60;5.63;;;;;;;;;;5075125;28;20467;-67
2022/11/24 08:40:01;;;;;;;8.13;4.63;;;;;;;;;;5071684;28;20464;-69
2022/11/24 08:42:29;;;;;;;10.13;5.47;;;;;;;;;;5061228;28;20485;-69
2022/11/24 08:44:59;;;;;;;12.83;5.40;;;;;;;;;;5071689;28;20467;-69
2022/11/24 08:47:39;;;;;;;13.43;5.10;;;;;;;;;;5056499;28;20501;-69
2022/11/24 08:52:59;;;;;;;15.70;4.80;;;;;;;;;;5048469;28;20568;-69
2022/11/24 08:55:27;;;;;;;11.17;5.10;;;;;;;;;;5072532;28;20452;-68
2022/11/24 08:57:57;;;;;;;10.23;5.47;;;;;;;;;;5058879;28;20582;-69
2022/11/24 09:00:29;;;;;;;7.53;4.77;;;;;;;;;;5053432;28;20568;-69
2022/11/24 09:03:02;;;;;;;13.50;5.33;;;;;;;;;;5066994;28;20484;-69
2022/11/24 09:05:36;;;;;;;6.80;5.07;;;;;;;;;;5073880;28;20498;-70
2022/11/24 09:08:04;;;;;;;9.20;5.23;;;;;;;;;;5070567;28;20495;-68
2022/11/24 09:10:34;;;;;;;5.70;3.80;;;;;;;;;;5070506;28;20484;-70
2022/11/24 09:13:02;;;;;;;17.03;6.03;;;;;;;;;;5059642;28;20472;-69
2022/11/24 09:15:30;;;;;;;13.27;6.60;;;;;;;;;;5080529;28;20559;-69
2022/11/24 09:18:00;;;;;;;16.83;4.90;;;;;;;;;;5075983;28;20585;-69
2022/11/24 09:20:28;;;;;;;9.43;4.70;;;;;;;;;;5064825;28;20464;-69
2022/11/24 09:22:57;;;;;;;9.27;5.30;;;;;;;;;;5068222;28;20461;-69
2022/11/24 09:25:43;;;;;;;7.07;4.23;;;;;;;;;;5069516;28;20613;-68
2022/11/24 09:28:14;;;;;;;9.40;4.47;;;;;;;;;;5058016;28;20473;-68
2022/11/24 09:30:44;;;;;;;16.90;5.60;;;;;;;;;;5066974;28;20481;-69
2022/11/24 09:33:14;;;;;;;8.20;4.17;;;;;;;;;;5072191;28;20456;-68
2022/11/24 09:38:38;;;;;;;10.90;4.20;;;;;;;;;;5071326;28;20429;-69
2022/11/24 09:41:23;;;;;;;10.40;5.90;;;;;;;;;;5071331;28;20491;-69
2022/11/24 09:44:00;;;;;;;14.50;5.13;;;;;;;;;;5075614;28;20492;-69
2022/11/24 09:46:39;;;;;;;11.30;4.40;;;;;;;;;;5072264;28;20498;-69
2022/11/24 09:49:31;;;;;;;9.03;3.63;;;;;;;;;;5049246;28;20462;-69
2022/11/24 09:52:35;;;;;;;8.70;3.97;;;;;;;;;;5065033;28;20449;-70
2022/11/24 09:55:07;;;;;;;11.93;4.90;;;;;;;;;;5074256;28;21097;-70
2022/11/24 09:57:42;;;;;;;8.37;4.00;;;;;;;;;;5076839;28;20471;-69
2022/11/24 10:00:13;;;;;;;14.53;6.50;;;;;;;;;;5074229;28;20986;-70
2022/11/24 10:02:55;;;;;;;13.00;5.43;;;;;;;;;;5068808;28;20750;-70
2022/11/24 10:05:46;;;;;;;7.60;3.80;;;;;;;;;;5071996;28;20503;-71
2022/11/24 10:11:33;;;;;;;9.30;4.70;;;;;;;;;;5072459;28;20567;-69
2022/11/24 10:14:11;;;;;;;7.90;4.53;;;;;;;;;;5072757;28;21109;-70
2022/11/24 10:16:46;;;;;;;13.53;4.90;;;;;;;;;;5055344;28;20827;-70
2022/11/24 10:22:37;;;;;;;8.10;4.33;;;;;;;;;;5053819;28;20458;-69
2022/11/24 10:25:10;;;;;;;15.87;6.70;;;;;;;;;;5072381;28;20488;-69
2022/11/24 10:27:49;;;;;;;6.90;4.20;;;;;;;;;;5076186;28;20747;-69
2022/11/24 10:30:22;;;;;;;10.53;5.30;;;;;;;;;;5074123;28;20560;-69
2022/11/24 10:33:00;;;;;;;13.67;4.53;;;;;;;;;;5066742;28;20465;-69
2022/11/24 10:35:30;;;;;;;12.10;4.60;;;;;;;;;;5073577;28;20561;-70
2022/11/24 10:38:26;;;;;;;12.37;5.07;;;;;;;;;;5062623;28;20872;-70
2022/11/24 10:40:57;;;;;;;13.03;5.03;;;;;;;;;;5064136;28;20473;-70
2022/11/24 10:43:38;;;;;;;12.60;4.67;;;;;;;;;;5071868;28;20741;-69
2022/11/24 10:46:13;;;;;;;14.10;4.73;;;;;;;;;;5065700;28;20476;-70
2022/11/24 10:48:47;;;;;;;12.90;5.00;;;;;;;;;;5065872;28;20873;-69
2022/11/24 10:51:50;;;;;;;11.17;4.67;;;;;;;;;;5056877;28;20496;-69
2022/11/24 10:54:20;;;;;;;19.03;6.43;;;;;;;;;;5005115;28;20480;-69
2022/11/24 10:57:08;;;;;;;12.73;5.73;;;;;;;;;;5009179;28;20459;-69
2022/11/24 10:59:45;;;;;;;10.50;4.50;;;;;;;;;;5045938;28;20468;-70
2022/11/24 11:05:43;;;;;;;12.83;4.80;;;;;;;;;;5068554;28;20468;-69
2022/11/24 11:08:27;;;;;;;14.90;5.20;;;;;;;;;;5051202;28;20517;-69
2022/11/24 11:11:19;;;;;;;12.43;4.27;;;;;;;;;;5071195;28;21086;-69
2022/11/24 11:14:17;;;;;;;13.70;5.10;;;;;;;;;;5054438;28;21119;-69
2022/11/24 11:16:49;;;;;;;13.07;5.80;;;;;;;;;;5068548;28;20535;-69
2022/11/24 11:19:36;;;;;;;13.40;4.50;;;;;;;;;;5068545;28;20536;-72
2022/11/24 11:22:13;;;;;;;13.23;5.03;;;;;;;;;;5070646;28;20453;-69
2022/11/24 11:24:55;;;;;;;15.10;3.63;;;;;;;;;;5067073;28;20568;-70
2022/11/24 11:27:26;;;;;;;13.50;4.80;;;;;;;;;;5070553;28;20500;-69
2022/11/24 11:30:20;;;;;;;12.63;4.53;;;;;;;;;;5079343;28;21168;-69
2022/11/24 11:33:10;;;;;;;12.20;4.10;;;;;;;;;;5061598;28;20714;-69
2022/11/24 11:35:41;;;;;;;16.00;4.00;;;;;;;;;;5065979;28;21084;-69
2022/11/24 11:38:13;;;;;;;13.43;4.40;;;;;;;;;;5063314;28;20531;-69
2022/11/24 11:40:44;;;;;;;12.60;4.60;;;;;;;;;;5061327;28;20503;-70
2022/11/24 11:43:32;;;;;;;10.17;3.53;;;;;;;;;;5072064;28;20480;-69
2022/11/24 11:46:27;;;;;;;14.20;6.10;;;;;;;;;;5064119;28;20461;-69
2022/11/24 11:49:01;;;;;;;9.17;4.50;;;;;;;;;;5069177;28;20459;-69
2022/11/24 11:51:57;;;;;;;14.20;5.77;;;;;;;;;;5072468;28;20498;-69
2022/11/24 11:54:35;;;;;;;13.67;5.77;;;;;;;;;;5055783;28;20464;-69
2022/11/24 12:03:19;;;;;;;13.10;5.00;;;;;;;;;;5055793;28;20741;-69
2022/11/24 12:09:05;;;;;;;13.70;6.40;;;;;;;;;;5056046;28;20465;-70
2022/11/24 12:11:57;;;;;;;14.20;4.90;;;;;;;;;;5047185;28;20536;-71
2022/11/24 12:14:35;;;;;;;18.33;5.60;;;;;;;;;;5056372;28;20480;-68
2022/11/24 12:17:24;;;;;;;12.70;3.23;;;;;;;;;;5055804;28;20498;-69
2022/11/24 12:20:09;;;;;;;11.03;4.67;;;;;;;;;;5066251;28;20461;-68
2022/11/24 12:22:41;;;;;;;10.37;4.90;;;;;;;;;;5061344;28;20567;-68
2022/11/24 12:25:19;;;;;;;16.63;9.07;;;;;;;;;;5066203;28;20496;-68
2022/11/24 12:28:03;;;;;;;22.33;9.77;;;;;;;;;;5063006;28;20490;-68
2022/11/24 12:30:39;;;;;;;19.00;6.10;;;;;;;;;;5065617;28;20480;-68
2022/11/24 12:33:29;;;;;;;11.83;4.73;;;;;;;;;;5073214;28;20852;-69
2022/11/24 12:36:17;;;;;;;20.57;5.27;;;;;;;;;;5055965;28;20460;-69
2022/11/24 12:39:15;;;;;;;14.00;3.80;;;;;;;;;;5059436;28;20538;-68
2022/11/24 12:42:00;;;;;;;14.50;5.50;;;;;;;;;;5052927;28;20550;-68
2022/11/24 12:47:48;;;;;;;10.50;5.27;;;;;;;;;;5059528;28;20538;-69
2022/11/24 12:50:37;;;;;;;15.97;4.40;;;;;;;;;;5070832;28;20488;-68
2022/11/24 12:53:18;;;;;;;14.63;4.50;;;;;;;;;;5064258;28;20461;-69
2022/11/24 12:55:50;;;;;;;10.23;4.47;;;;;;;;;;5074910;28;20464;-68
2022/11/24 12:58:33;;;;;;;13.07;3.20;;;;;;;;;;5066216;28;20469;-68
2022/11/24 13:01:21;;;;;;;13.33;5.20;;;;;;;;;;5066632;28;20468;-68
2022/11/24 13:06:55;;;;;;;10.30;2.93;;;;;;;;;;5040104;28;21007;-69
2022/11/24 13:09:27;;;;;;;13.13;4.27;;;;;;;;;;5063086;28;20494;-70
2022/11/24 13:11:57;;;;;;;9.77;2.70;;;;;;;;;;5062664;28;20503;-67
2022/11/24 13:14:42;;;;;;;8.50;2.73;;;;;;;;;;5068972;28;20518;-70
2022/11/24 13:17:39;;;;;;;49.17;5.10;;;;;;;;;;5064852;28;20452;-69
2022/11/24 13:20:29;;;;;;;8.70;3.70;;;;;;;;;;5064444;28;20496;-69
2022/11/24 13:22:58;;;;;;;12.03;5.20;;;;;;;;;;5041294;28;20599;-69
2022/11/24 13:25:48;;;;;;;11.80;4.07;;;;;;;;;;5061655;28;20536;-70
2022/11/24 13:28:38;;;;;;;12.27;3.53;;;;;;;;;;5063596;28;20516;-68
2022/11/24 13:31:22;;;;;;;7.80;4.30;;;;;;;;;;5066374;28;20480;-69
2022/11/24 13:37:01;;;;;;;10.07;3.97;;;;;;;;;;5126423;27;20408;-69
2022/11/24 13:39:52;;;;;;;12.77;5.30;;;;;;;;;;5118684;27;20541;-70
2022/11/24 13:42:30;;;;;;;12.97;4.07;;;;;;;;;;5115369;27;20451;-70
2022/11/24 13:45:06;;;;;;;11.47;3.90;;;;;;;;;;5121220;27;20470;-69
2022/11/24 13:47:39;;;;;;;14.30;4.53;;;;;;;;;;5124240;27;20922;-70
2022/11/24 13:50:16;;;;;;;40.17;19.33;;;;;;;;;;5122242;27;20454;-70
2022/11/24 13:53:00;;;;;;;11.00;4.57;;;;;;;;;;5126981;27;20486;-69
2022/11/24 13:55:33;;;;;;;13.00;3.83;;;;;;;;;;5127090;27;20869;-69
2022/11/24 13:58:07;;;;;;;10.10;4.63;;;;;;;;;;5121693;27;20466;-69
2022/11/24 14:01:03;;;;;;;9.30;4.50;;;;;;;;;;5123572;27;20457;-70
2022/11/24 14:06:43;;;;;;;10.60;4.60;;;;;;;;;;5121997;27;20503;-68
2022/11/24 14:09:33;;;;;;;10.60;4.77;;;;;;;;;;5114905;27;20465;-69
2022/11/24 14:12:13;;;;;;;12.20;5.40;;;;;;;;;;5127197;27;20454;-69
2022/11/24 14:14:41;;;;;;;15.40;5.77;;;;;;;;;;5123023;27;20485;-69
2022/11/24 14:17:22;;;;;;;26.87;16.90;;;;;;;;;;5127103;27;20473;-69
2022/11/24 14:19:52;;;;;;;21.50;7.97;;;;;;;;;;5130707;27;20469;-69
2022/11/24 14:22:30;;;;;;;23.13;9.83;;;;;;;;;;5122904;27;20461;-69
2022/11/24 14:25:02;;;;;;;21.07;8.40;;;;;;;;;;5135366;27;20472;-70
2022/11/24 14:27:39;;;;;;;14.50;6.90;;;;;;;;;;5123841;27;20477;-70
2022/11/24 14:30:20;;;;;;;14.33;6.00;;;;;;;;;;5116889;27;20938;-70
2022/11/24 14:51:49;;;;;;;18.13;7.17;;;;;;;;;;5023997;28;20485;-69
2022/11/24 14:54:20;;;;;;;12.40;5.80;;;;;;;;;;5025014;28;20454;-69
2022/11/24 15:02:47;;;;;;;15.77;4.83;;;;;;;;;;5092320;28;20443;-69
2022/11/24 15:05:19;;;;;;;11.33;4.17;;;;;;;;;;5081558;28;20492;-69
2022/11/24 15:08:00;;;;;;;17.63;4.40;;;;;;;;;;5086306;28;20880;-69
2022/11/24 15:10:56;;;;;;;12.93;4.47;;;;;;;;;;5083955;28;20479;-69
2022/11/24 15:13:28;;;;;;;13.67;5.40;;;;;;;;;;5085736;28;20460;-69
2022/11/24 15:16:01;;;;;;;9.10;4.10;;;;;;;;;;5095194;28;20590;-69
2022/11/24 15:25:01;;;;;;;15.17;3.37;;;;;;;;;;4991358;28;20927;-69
2022/11/24 15:27:41;;;;;;;9.50;4.23;;;;;;;;;;5095988;28;20459;-68
2022/11/24 15:30:22;;;;;;;10.77;4.70;;;;;;;;;;5087321;28;20466;-67
2022/11/24 15:33:00;;;;;;;17.67;5.57;;;;;;;;;;5085208;28;20587;-67
2022/11/24 15:35:57;;;;;;;15.40;4.70;;;;;;;;;;5086679;28;20522;-68
2022/11/24 15:41:42;;;;;;;11.83;5.17;;;;;;;;;;5081302;28;20566;-68
2022/11/24 15:44:24;;;;;;;8.27;3.47;;;;;;;;;;5094736;28;20740;-69
2022/11/24 15:47:05;;;;;;;12.20;4.40;;;;;;;;;;5093456;28;20515;-69
2022/11/24 15:49:35;;;;;;;10.30;4.93;;;;;;;;;;5084680;28;20919;-68
2022/11/24 15:52:17;;;;;;;12.40;5.30;;;;;;;;;;5086984;28;20460;-68
2022/11/24 16:01:33;;;;;;;13.87;7.50;;;;;;;;;;5083022;28;20471;-68
2022/11/24 16:04:05;;;;;;;18.70;13.00;;;;;;;;;;5084351;28;20447;-68
2022/11/24 16:06:41;;;;;;;18.50;9.23;;;;;;;;;;5096908;28;20802;-67
2022/11/24 16:09:19;;;;;;;19.13;10.80;;;;;;;;;;5093888;27;20455;-67
2022/11/24 16:12:02;;;;;;;14.13;6.80;;;;;;;;;;5087238;28;20478;-68
2022/11/24 16:17:30;;;;;;;13.33;6.00;;;;;;;;;;5092886;28;20458;-68
2022/11/24 16:20:14;;;;;;;16.63;7.57;;;;;;;;;;5099119;27;20467;-69
2022/11/24 16:23:03;;;;;;;20.03;6.20;;;;;;;;;;5091653;28;20466;-69
2022/11/24 16:25:36;;;;;;;18.33;7.90;;;;;;;;;;5090088;28;20507;-67
2022/11/24 16:34:22;;;;;;;11.97;6.27;;;;;;;;;;5089269;28;20455;-68
2022/11/24 16:37:07;;;;;;;13.13;6.60;;;;;;;;;;5092267;28;20487;-68
2022/11/24 16:39:35;;;;;;;17.60;5.93;;;;;;;;;;5090476;28;20471;-67
2022/11/24 16:42:12;;;;;;;18.23;8.87;;;;;;;;;;5089115;28;20466;-68
2022/11/24 16:47:29;;;;;;;12.70;5.60;;;;;;;;;;5092685;28;20478;-68
2022/11/24 16:49:56;;;;;;;22.20;7.80;;;;;;;;;;5092740;28;20443;-67
2022/11/24 16:52:23;;;;;;;13.40;6.97;;;;;;;;;;5092659;28;20823;-68
2022/11/24 16:54:50;;;;;;;16.77;7.60;;;;;;;;;;5092059;28;20543;-67
2022/11/24 16:57:20;;;;;;;14.83;7.53;;;;;;;;;;5089926;28;20521;-67